Time;durP1;ratioP1;P1;durP2;ratioP2;P2;SDS_P1;SDS_P2;PMS_P1;PMS_P2;Temp;Humidity;BMP_temperature;BMP_pressure;BME280_temperature;BME280_humidity;BME280_pressure;Samples;Min_cycle;Max_cycle;Signal;HPM_P1;HPM_P2
2023/07/27 00:01:46;;;;;;;15.25;6.28;;;;;;;16.07;77.35;99802.50;6093574;23;20044;-83
2023/07/27 00:04:12;;;;;;;14.13;6.22;;;;;;;16.06;77.54;99793.63;6069839;23;20025;-83
2023/07/27 00:06:39;;;;;;;16.33;5.70;;;;;;;16.03;77.78;99783.28;6071077;23;20116;-84
2023/07/27 00:09:06;;;;;;;13.75;6.50;;;;;;;16.05;77.72;99788.44;6045944;23;20064;-83
2023/07/27 00:11:33;;;;;;;20.55;7.20;;;;;;;16.04;77.73;99787.59;6095121;23;20021;-83
2023/07/27 00:14:00;;;;;;;16.25;6.88;;;;;;;16.05;77.43;99780.41;6093989;23;20401;-84
2023/07/27 00:16:26;;;;;;;15.13;6.60;;;;;;;16.05;77.87;99781.25;6093974;23;20025;-84
2023/07/27 00:18:53;;;;;;;15.48;7.50;;;;;;;16.05;77.68;99785.75;6094732;23;20033;-84
2023/07/27 00:21:21;;;;;;;14.75;5.97;;;;;;;16.03;77.47;99775.25;6094691;23;20032;-83
2023/07/27 00:23:48;;;;;;;12.85;6.50;;;;;;;16.04;77.10;99781.44;6059205;23;20040;-84
2023/07/27 00:26:15;;;;;;;12.30;5.93;;;;;;;16.01;77.12;99776.41;6094516;23;20076;-84
2023/07/27 00:28:41;;;;;;;11.77;6.75;;;;;;;16.03;77.13;99782.44;6118936;23;20609;-84
2023/07/27 00:31:09;;;;;;;12.73;6.05;;;;;;;16.02;76.83;99772.72;6069608;23;20021;-84
2023/07/27 00:33:35;;;;;;;11.20;5.95;;;;;;;16.04;76.68;99773.38;6093469;23;20290;-84
2023/07/27 00:36:02;;;;;;;15.35;5.93;;;;;;;16.05;76.76;99780.41;6093469;23;20029;-83
2023/07/27 00:38:29;;;;;;;12.65;6.38;;;;;;;16.03;76.49;99777.09;6094604;23;20018;-84
2023/07/27 00:40:56;;;;;;;13.98;6.18;;;;;;;16.01;76.52;99769.22;6118497;23;20022;-84
2023/07/27 00:43:23;;;;;;;13.95;5.70;;;;;;;16.01;76.21;99763.84;6045846;23;20026;-84
2023/07/27 00:45:50;;;;;;;10.70;5.68;;;;;;;16.00;75.90;99762.19;6094292;23;20029;-84
2023/07/27 00:48:17;;;;;;;13.93;5.95;;;;;;;15.99;76.37;99759.69;6045777;23;20029;-84
2023/07/27 00:50:45;;;;;;;13.05;6.25;;;;;;;15.98;76.97;99752.66;6069943;23;20033;-84
2023/07/27 00:53:13;;;;;;;13.52;6.35;;;;;;;15.94;77.15;99748.66;6092627;23;20045;-86
2023/07/27 00:55:41;;;;;;;16.17;5.60;;;;;;;15.94;77.08;99749.47;6095947;23;20045;-84
2023/07/27 00:58:08;;;;;;;15.70;7.10;;;;;;;15.89;77.02;99738.44;6093579;23;20549;-83
2023/07/27 01:00:35;;;;;;;9.23;6.07;;;;;;;15.88;77.19;99742.16;6093424;23;20357;-84
2023/07/27 01:03:03;;;;;;;11.63;5.90;;;;;;;15.88;76.83;99739.47;6070216;23;20489;-84
2023/07/27 01:05:31;;;;;;;12.30;6.10;;;;;;;15.89;76.76;99729.59;6095496;23;20092;-84
2023/07/27 01:07:58;;;;;;;11.75;6.00;;;;;;;15.86;76.74;99730.78;6069744;23;20033;-84
2023/07/27 01:10:36;;;;;;;17.25;6.88;;;;;;;15.79;76.78;99727.94;6094041;23;20021;-84
2023/07/27 01:13:15;;;;;;;15.85;6.50;;;;;;;15.77;76.75;99726.44;6117846;23;20021;-84
2023/07/27 01:15:44;;;;;;;13.10;6.55;;;;;;;15.80;76.62;99726.13;6119072;23;20100;-84
2023/07/27 01:18:15;;;;;;;13.38;6.50;;;;;;;15.77;76.64;99719.25;6071858;23;20327;-83
2023/07/27 01:20:53;;;;;;;16.75;6.40;;;;;;;15.77;76.35;99726.44;6120636;23;20092;-83
2023/07/27 01:23:37;;;;;;;12.80;6.60;;;;;;;15.71;76.58;99716.44;6093230;23;20048;-84
2023/07/27 01:26:16;;;;;;;13.77;6.10;;;;;;;15.71;76.78;99719.09;6096028;23;20075;-83
2023/07/27 01:29:28;;;;;;;12.30;6.18;;;;;;;15.65;76.78;99707.22;6145345;23;20024;-83
2023/07/27 01:31:55;;;;;;;14.77;6.63;;;;;;;15.72;76.53;99705.56;6118769;23;20302;-84
2023/07/27 01:34:29;;;;;;;14.65;6.82;;;;;;;15.69;76.43;99702.34;6070105;23;20027;-84
2023/07/27 01:37:04;;;;;;;12.25;5.93;;;;;;;15.67;75.47;99705.19;6096226;23;20029;-83
2023/07/27 01:39:34;;;;;;;17.77;6.00;;;;;;;15.72;75.42;99697.53;6094607;23;20022;-84
2023/07/27 01:42:02;;;;;;;9.63;5.65;;;;;;;15.71;76.05;99698.50;6095643;23;20117;-83
2023/07/27 01:44:29;;;;;;;11.70;6.03;;;;;;;15.70;76.29;99688.81;6094483;23;20021;-83
2023/07/27 01:46:57;;;;;;;15.13;7.05;;;;;;;15.70;76.52;99686.16;6095612;23;20065;-84
2023/07/27 01:49:24;;;;;;;11.55;6.20;;;;;;;15.67;76.67;99683.75;6069911;23;20047;-83
2023/07/27 01:51:51;;;;;;;14.25;6.57;;;;;;;15.67;76.71;99683.75;6072226;23;20017;-84
2023/07/27 01:54:18;;;;;;;11.82;6.53;;;;;;;15.67;76.71;99689.13;6047247;23;20021;-84
2023/07/27 01:56:45;;;;;;;11.90;6.75;;;;;;;15.65;77.08;99683.13;6094588;23;20021;-83
2023/07/27 01:59:13;;;;;;;12.80;5.97;;;;;;;15.64;76.86;99679.59;6071575;23;20030;-84
2023/07/27 02:01:42;;;;;;;14.70;6.35;;;;;;;15.65;76.88;99677.78;6070295;23;20080;-84
2023/07/27 02:04:12;;;;;;;17.95;6.30;;;;;;;15.66;77.36;99683.94;6072941;23;20343;-83
2023/07/27 02:06:40;;;;;;;12.27;6.35;;;;;;;15.64;77.18;99676.91;6071079;23;20025;-83
2023/07/27 02:09:06;;;;;;;16.02;6.65;;;;;;;15.63;77.20;99679.78;6094481;23;20406;-84
2023/07/27 02:11:33;;;;;;;15.82;7.20;;;;;;;15.63;77.35;99677.09;6120398;23;20030;-83
2023/07/27 02:14:20;;;;;;;16.35;7.13;;;;;;;15.53;77.65;99665.75;6117630;23;20386;-84
2023/07/27 02:16:54;;;;;;;15.18;6.30;;;;;;;15.57;77.49;99664.38;6070777;23;20084;-84
2023/07/27 02:19:26;;;;;;;12.57;6.50;;;;;;;15.61;77.32;99663.88;6071891;23;20032;-84
2023/07/27 02:21:55;;;;;;;17.23;6.72;;;;;;;15.59;77.40;99665.88;6093955;23;20025;-84
2023/07/27 02:24:24;;;;;;;12.73;6.25;;;;;;;15.59;77.40;99659.72;6046128;23;20032;-84
2023/07/27 02:26:51;;;;;;;19.45;6.88;;;;;;;15.59;77.56;99652.50;6071875;23;20650;-83
2023/07/27 02:29:18;;;;;;;12.20;6.47;;;;;;;15.57;77.42;99649.19;6047948;23;20021;-84
2023/07/27 02:31:45;;;;;;;15.15;6.07;;;;;;;15.58;77.45;99644.66;6095354;23;20021;-83
2023/07/27 02:34:12;;;;;;;9.55;6.15;;;;;;;15.57;77.45;99637.63;6093771;23;20498;-83
2023/07/27 02:36:38;;;;;;;10.02;6.30;;;;;;;15.55;77.32;99637.00;6119088;23;20040;-85
2023/07/27 02:39:05;;;;;;;13.02;5.90;;;;;;;15.54;77.26;99629.94;6096043;23;20323;-84
2023/07/27 02:41:33;;;;;;;15.13;6.35;;;;;;;15.52;77.33;99635.50;6094328;23;20029;-84
2023/07/27 02:44:04;;;;;;;16.80;6.65;;;;;;;15.53;76.96;99630.97;6048764;23;20045;-84
2023/07/27 02:46:30;;;;;;;11.88;5.80;;;;;;;15.51;77.18;99627.63;6095622;23;20705;-85
2023/07/27 02:48:59;;;;;;;14.02;6.38;;;;;;;15.51;77.06;99630.31;6071218;23;20076;-84
2023/07/27 02:51:26;;;;;;;12.30;5.75;;;;;;;15.52;77.02;99631.97;6119807;23;20466;-84
2023/07/27 02:53:57;;;;;;;12.07;6.15;;;;;;;15.51;77.20;99627.63;6094073;23;20063;-84
2023/07/27 02:56:28;;;;;;;13.40;6.07;;;;;;;15.49;77.10;99635.81;6072040;23;20022;-84
2023/07/27 02:58:56;;;;;;;8.68;5.18;;;;;;;15.50;77.21;99637.50;6046980;23;20017;-84
2023/07/27 03:01:23;;;;;;;15.35;5.60;;;;;;;15.49;77.25;99635.81;6070240;23;20026;-84
2023/07/27 03:03:59;;;;;;;16.25;6.68;;;;;;;15.50;77.26;99636.69;6117903;23;20029;-84
2023/07/27 03:06:27;;;;;;;13.57;6.60;;;;;;;15.49;77.20;99637.66;6071254;23;20412;-84
2023/07/27 03:08:57;;;;;;;14.27;6.30;;;;;;;15.47;77.61;99634.31;6095834;23;20043;-85
2023/07/27 03:11:24;;;;;;;12.18;6.13;;;;;;;15.47;77.38;99629.81;6069763;23;20035;-86
2023/07/27 03:13:52;;;;;;;14.70;6.50;;;;;;;15.48;77.53;99631.47;6068602;23;20037;-85
2023/07/27 03:16:19;;;;;;;11.10;6.00;;;;;;;15.47;77.70;99635.19;6094102;23;20013;-85
2023/07/27 03:18:47;;;;;;;17.85;7.32;;;;;;;15.46;77.77;99636.16;6047048;23;20095;-84
2023/07/27 03:21:14;;;;;;;12.18;6.20;;;;;;;15.45;77.55;99637.19;6071037;23;20088;-85
2023/07/27 03:23:40;;;;;;;17.98;6.15;;;;;;;15.46;77.33;99638.00;6093803;23;20450;-84
2023/07/27 03:26:11;;;;;;;10.90;6.35;;;;;;;15.43;77.65;99636.50;6118139;23;20093;-85
2023/07/27 03:28:38;;;;;;;10.35;5.97;;;;;;;15.45;77.66;99634.50;6092663;23;20017;-84
2023/07/27 03:31:24;;;;;;;10.48;6.30;;;;;;;15.37;78.06;99627.34;6064565;23;20485;-84
2023/07/27 03:33:52;;;;;;;9.82;5.55;;;;;;;15.44;77.80;99629.31;6068396;23;20485;-84
2023/07/27 03:36:20;;;;;;;14.15;6.60;;;;;;;15.44;77.82;99629.31;6070227;23;20414;-84
2023/07/27 03:38:47;;;;;;;11.15;5.88;;;;;;;15.44;77.80;99632.81;6095755;23;20085;-90
2023/07/27 03:41:14;;;;;;;9.73;5.70;;;;;;;15.44;77.83;99616.75;6049110;23;20449;-92
2023/07/27 03:43:41;;;;;;;14.63;6.65;;;;;;;15.40;77.81;99616.28;6073424;23;20025;-90
2023/07/27 03:46:08;;;;;;;16.23;6.97;;;;;;;15.41;77.76;99609.91;6074139;23;20061;-89
2023/07/27 03:48:35;;;;;;;9.45;5.15;;;;;;;15.44;77.93;99607.91;6072817;23;20053;-89
2023/07/27 03:51:03;;;;;;;13.90;6.35;;;;;;;15.46;77.84;99608.56;6072676;23;20029;-89
2023/07/27 03:53:30;;;;;;;16.23;6.50;;;;;;;15.45;77.73;99610.44;6072574;23;20453;-89
2023/07/27 03:55:57;;;;;;;11.70;5.85;;;;;;;15.39;77.83;99603.06;6072625;23;20484;-89
2023/07/27 03:58:24;;;;;;;15.57;6.50;;;;;;;15.41;77.89;99614.44;6096151;23;20029;-89
2023/07/27 04:00:51;;;;;;;12.77;6.25;;;;;;;15.41;77.99;99609.09;6056189;23;20025;-89
2023/07/27 04:03:18;;;;;;;14.50;6.55;;;;;;;15.39;78.01;99608.41;6072448;23;20052;-87
2023/07/27 04:05:45;;;;;;;12.73;6.90;;;;;;;15.40;77.87;99605.59;6095421;23;20017;-89
2023/07/27 04:08:11;;;;;;;17.13;7.07;;;;;;;15.39;78.07;99600.41;6073312;23;20100;-90
2023/07/27 04:10:41;;;;;;;14.52;6.10;;;;;;;15.38;78.22;99601.41;6072723;23;20045;-90
2023/07/27 04:13:10;;;;;;;12.70;6.00;;;;;;;15.39;78.47;99598.59;6048947;23;20037;-89
2023/07/27 04:15:38;;;;;;;11.70;5.43;;;;;;;15.39;78.42;99592.38;6096493;23;20029;-91
2023/07/27 04:18:05;;;;;;;11.10;6.05;;;;;;;15.38;78.48;99586.19;6097434;23;20029;-90
2023/07/27 04:20:32;;;;;;;15.77;6.47;;;;;;;15.37;78.61;99587.22;6096901;23;20389;-88
2023/07/27 04:22:59;;;;;;;11.48;6.55;;;;;;;15.37;78.64;99581.03;6095343;23;20018;-90
2023/07/27 04:25:26;;;;;;;15.50;6.35;;;;;;;15.40;78.51;99584.19;6049225;23;20040;-87
2023/07/27 04:27:53;;;;;;;10.70;6.32;;;;;;;15.37;78.78;99581.03;6096762;23;20385;-91
2023/07/27 04:30:20;;;;;;;11.90;6.40;;;;;;;15.39;78.90;99582.53;6096525;23;20334;-92
2023/07/27 04:32:47;;;;;;;12.07;6.22;;;;;;;15.38;78.81;99580.00;6048997;23;20160;-92
2023/07/27 04:35:14;;;;;;;29.10;9.07;;;;;;;15.41;79.24;99576.97;6096558;23;20017;-92
2023/07/27 04:37:41;;;;;;;11.50;6.25;;;;;;;15.40;78.95;99578.00;6071753;23;20025;-93
2023/07/27 04:40:08;;;;;;;11.90;6.90;;;;;;;15.42;79.28;99584.03;6052208;23;20033;-92
2023/07/27 04:42:35;;;;;;;16.13;6.47;;;;;;;15.43;79.09;99580.31;6095317;23;20048;-93
2023/07/27 04:45:02;;;;;;;14.15;7.93;;;;;;;15.44;79.37;99579.31;6071558;23;20025;-93
2023/07/27 04:47:29;;;;;;;14.45;6.38;;;;;;;15.45;79.48;99577.50;6072208;23;20041;-92
2023/07/27 04:49:56;;;;;;;15.85;7.63;;;;;;;15.46;79.36;99582.66;6073855;23;20454;-94
2023/07/27 04:52:23;;;;;;;14.52;6.78;;;;;;;15.46;79.61;99584.50;6097230;23;20025;-92
2023/07/27 04:54:50;;;;;;;21.98;6.53;;;;;;;15.48;79.05;99580.63;6074823;23;20426;-94
2023/07/27 04:57:17;;;;;;;16.63;6.15;;;;;;;15.49;78.94;99582.28;6097183;23;20450;-93
2023/07/27 04:59:43;;;;;;;12.90;6.53;;;;;;;15.52;79.14;99578.44;6097666;23;20068;-93
2023/07/27 05:02:10;;;;;;;13.35;6.05;;;;;;;15.52;78.91;99578.44;6075409;23;20018;-93
2023/07/27 05:04:37;;;;;;;13.57;6.80;;;;;;;15.54;79.08;99576.44;6050938;23;20105;-93
2023/07/27 05:07:05;;;;;;;16.67;6.22;;;;;;;15.55;79.07;99570.09;6097891;23;20505;-93
2023/07/27 05:09:32;;;;;;;10.35;6.28;;;;;;;15.57;78.55;99568.91;6074557;23;20076;-94
2023/07/27 05:11:59;;;;;;;15.57;7.00;;;;;;;15.58;78.76;99565.19;6073088;23;20098;-93
2023/07/27 05:14:26;;;;;;;14.85;7.00;;;;;;;15.60;78.84;99571.22;6097691;23;20032;-92
2023/07/27 05:16:53;;;;;;;14.77;6.93;;;;;;;15.64;78.79;99571.69;6098545;23;20492;-92
2023/07/27 05:19:19;;;;;;;13.68;6.32;;;;;;;15.65;78.70;99570.72;6049716;23;20025;-94
2023/07/27 05:21:46;;;;;;;12.80;6.55;;;;;;;15.66;78.63;99574.22;6050281;23;20072;-91
2023/07/27 05:24:13;;;;;;;15.68;7.35;;;;;;;15.67;78.27;99571.34;6073733;23;20040;-93
2023/07/27 05:26:40;;;;;;;15.13;7.53;;;;;;;15.67;78.17;99575.88;6073691;23;20026;-93
2023/07/27 05:29:07;;;;;;;13.65;7.00;;;;;;;15.66;78.02;99569.69;6073112;23;20017;-94
2023/07/27 05:31:33;;;;;;;14.57;7.20;;;;;;;15.68;78.14;99566.84;6074125;23;20024;-93
2023/07/27 05:34:00;;;;;;;15.02;7.50;;;;;;;15.69;78.26;99565.81;6097269;23;20022;-93
2023/07/27 05:36:27;;;;;;;12.70;6.47;;;;;;;15.67;78.33;99562.47;6050185;23;20022;-93
2023/07/27 05:38:54;;;;;;;15.00;7.22;;;;;;;15.70;78.84;99565.69;6097829;23;20442;-93
2023/07/27 05:41:21;;;;;;;15.65;7.22;;;;;;;15.72;79.34;99566.34;6097211;23;20017;-93
2023/07/27 05:43:48;;;;;;;17.77;8.45;;;;;;;15.77;79.40;99560.44;6049449;23;20461;-92
2023/07/27 05:46:15;;;;;;;14.52;8.00;;;;;;;15.79;79.01;99561.13;6073749;23;20147;-92
2023/07/27 05:48:42;;;;;;;14.82;7.45;;;;;;;15.79;78.70;99555.75;6073170;23;20052;-94
2023/07/27 05:51:09;;;;;;;14.25;7.70;;;;;;;15.80;78.97;99546.72;6097079;23;20033;-94
2023/07/27 05:53:37;;;;;;;15.15;7.47;;;;;;;15.86;79.06;99550.53;6098575;23;20476;-92
2023/07/27 05:56:04;;;;;;;18.40;8.30;;;;;;;15.90;79.29;99559.88;6073209;23;20619;-93
2023/07/27 05:58:31;;;;;;;14.50;7.38;;;;;;;15.91;79.17;99557.03;6097494;23;20089;-93
2023/07/27 06:01:04;;;;;;;13.15;7.50;;;;;;;15.93;79.34;99556.88;6097539;23;20021;-92
2023/07/27 06:03:31;;;;;;;14.27;7.38;;;;;;;15.98;79.44;99552.63;6073287;23;20033;-94
2023/07/27 06:05:59;;;;;;;17.77;8.20;;;;;;;16.00;79.79;99553.28;6073929;23;20017;-93
2023/07/27 06:08:26;;;;;;;15.43;7.20;;;;;;;15.98;79.72;99543.78;6049535;23;20465;-93
2023/07/27 06:11:00;;;;;;;15.57;8.02;;;;;;;15.97;79.98;99545.59;6096259;23;20034;-93
2023/07/27 06:13:29;;;;;;;22.17;7.95;;;;;;;16.02;80.07;99548.56;6073081;23;20028;-94
2023/07/27 06:15:56;;;;;;;22.52;7.97;;;;;;;16.03;79.96;99544.91;6049674;23;20349;-92
2023/07/27 06:18:23;;;;;;;15.43;7.45;;;;;;;16.04;80.09;99545.72;6049638;23;21375;-93
2023/07/27 06:20:50;;;;;;;18.77;8.13;;;;;;;16.07;80.20;99540.00;6072983;23;20025;-93
2023/07/27 06:23:17;;;;;;;18.25;7.93;;;;;;;16.12;80.25;99531.44;6096778;23;20024;-92
2023/07/27 06:25:44;;;;;;;15.38;7.45;;;;;;;16.14;80.24;99524.91;6097338;23;20037;-94
2023/07/27 06:28:12;;;;;;;21.13;7.80;;;;;;;16.19;80.20;99525.19;6072969;23;20017;-94
2023/07/27 06:30:39;;;;;;;19.67;7.35;;;;;;;16.23;79.91;99528.34;6096246;23;20029;-92
2023/07/27 06:33:06;;;;;;;18.20;7.25;;;;;;;16.27;80.20;99524.28;6097443;23;20037;-93
2023/07/27 06:35:33;;;;;;;15.43;7.35;;;;;;;16.30;80.41;99520.41;6097249;23;20092;-93
2023/07/27 06:38:00;;;;;;;16.10;7.63;;;;;;;16.34;80.05;99519.06;6049158;23;20430;-92
2023/07/27 06:40:27;;;;;;;16.60;7.20;;;;;;;16.38;80.04;99515.81;6098248;23;20041;-93
2023/07/27 06:42:54;;;;;;;16.45;7.18;;;;;;;16.41;80.02;99514.63;6073194;23;20325;-93
2023/07/27 06:45:21;;;;;;;14.07;7.63;;;;;;;16.41;79.86;99512.78;6072963;23;20029;-92
2023/07/27 06:47:48;;;;;;;11.82;6.55;;;;;;;16.42;79.94;99514.44;6097360;23;20076;-93
2023/07/27 06:50:15;;;;;;;18.88;6.10;;;;;;;16.46;80.13;99513.06;6072057;23;20022;-92
2023/07/27 06:52:42;;;;;;;14.10;6.90;;;;;;;16.45;80.32;99503.34;6072848;23;20021;-92
2023/07/27 06:55:10;;;;;;;14.98;6.90;;;;;;;16.52;80.36;99498.09;6072354;23;20057;-93
2023/07/27 06:57:37;;;;;;;17.65;7.30;;;;;;;16.54;80.32;99508.63;6096242;23;20022;-92
2023/07/27 07:00:06;;;;;;;14.52;7.25;;;;;;;16.58;80.45;99500.06;6072032;23;20034;-93
2023/07/27 07:02:33;;;;;;;19.15;6.88;;;;;;;16.62;80.49;99500.53;6071714;23;20025;-94
2023/07/27 07:05:00;;;;;;;15.98;6.97;;;;;;;16.62;80.33;99496.00;6048990;23;20044;-92
2023/07/27 07:07:27;;;;;;;14.25;6.88;;;;;;;16.66;80.54;99491.09;6096556;23;20021;-93
2023/07/27 07:09:54;;;;;;;16.33;7.07;;;;;;;16.69;80.42;99491.56;6095698;23;20037;-93
2023/07/27 07:12:20;;;;;;;13.85;6.32;;;;;;;16.70;80.62;99492.41;6096497;23;20045;-92
2023/07/27 07:14:47;;;;;;;14.73;6.57;;;;;;;16.74;80.71;99488.34;6071007;23;20028;-93
2023/07/27 07:17:14;;;;;;;12.88;6.82;;;;;;;16.76;80.01;99488.97;6048264;23;20017;-92
2023/07/27 07:19:41;;;;;;;14.93;6.95;;;;;;;16.80;80.06;99492.16;6071851;23;20025;-92
2023/07/27 07:22:08;;;;;;;14.00;6.07;;;;;;;16.80;80.09;99489.50;6095929;23;20080;-92
2023/07/27 07:24:35;;;;;;;13.27;6.80;;;;;;;16.80;80.36;99482.25;6093661;23;20060;-92
2023/07/27 07:27:02;;;;;;;17.17;6.72;;;;;;;16.83;80.62;99487.25;6096896;23;20040;-93
2023/07/27 07:29:29;;;;;;;12.35;6.28;;;;;;;16.85;80.85;99481.72;6095639;23;20025;-91
2023/07/27 07:31:55;;;;;;;14.23;6.70;;;;;;;16.89;80.62;99486.53;6094573;23;20025;-93
2023/07/27 07:34:22;;;;;;;15.30;6.47;;;;;;;16.88;81.29;99486.72;6072625;23;20080;-93
2023/07/27 07:36:49;;;;;;;13.30;6.35;;;;;;;16.90;81.37;99487.34;6047074;23;20017;-93
2023/07/27 07:39:17;;;;;;;16.20;6.35;;;;;;;16.90;81.40;99479.31;6095653;23;20108;-92
2023/07/27 07:41:43;;;;;;;13.80;6.65;;;;;;;16.91;81.29;99483.66;6049082;23;20025;-94
2023/07/27 07:44:10;;;;;;;12.35;6.22;;;;;;;16.92;81.34;99483.47;6071354;23;20338;-91
2023/07/27 07:46:37;;;;;;;12.13;6.00;;;;;;;16.95;81.67;99481.44;6095863;23;20515;-92
2023/07/27 07:49:04;;;;;;;14.23;6.25;;;;;;;16.93;81.64;99484.31;6048107;23;20100;-93
2023/07/27 07:51:31;;;;;;;11.27;6.25;;;;;;;16.91;81.56;99475.59;6095773;23;20033;-93
2023/07/27 07:53:58;;;;;;;21.08;6.38;;;;;;;16.91;81.63;99475.59;6048402;23;20047;-93
2023/07/27 07:56:25;;;;;;;13.27;5.40;;;;;;;16.91;81.42;99483.66;6095298;23;20475;-92
2023/07/27 07:58:51;;;;;;;11.02;5.85;;;;;;;16.89;81.93;99481.16;6095964;23;20080;-93
2023/07/27 08:01:18;;;;;;;18.70;6.20;;;;;;;16.89;81.65;99491.91;6071323;23;20381;-93
2023/07/27 08:03:45;;;;;;;12.55;5.70;;;;;;;16.88;81.76;99486.72;6095723;23;20024;-93
2023/07/27 08:06:12;;;;;;;12.73;6.82;;;;;;;16.90;81.65;99482.00;6095684;23;20116;-92
2023/07/27 08:08:39;;;;;;;12.82;5.75;;;;;;;16.89;82.16;99481.16;6095832;23;20021;-93
2023/07/27 08:11:06;;;;;;;13.70;7.43;;;;;;;16.90;82.25;99490.03;6095020;23;20032;-92
2023/07/27 08:13:34;;;;;;;14.40;6.63;;;;;;;16.91;82.85;99497.06;6094893;23;20033;-93
2023/07/27 08:16:03;;;;;;;14.18;5.80;;;;;;;16.89;83.58;99488.34;6120201;23;20025;-92
2023/07/27 08:18:32;;;;;;;11.18;5.78;;;;;;;16.89;84.26;99491.03;6072142;23;20021;-93
2023/07/27 08:21:00;;;;;;;12.88;6.20;;;;;;;16.92;84.76;99499.56;6050289;23;20021;-93
2023/07/27 08:23:28;;;;;;;9.23;5.32;;;;;;;16.91;85.44;99486.34;6074670;23;20024;-94
2023/07/27 08:25:56;;;;;;;13.98;6.25;;;;;;;16.95;85.55;99493.00;6099830;23;20126;-92
2023/07/27 08:28:23;;;;;;;14.02;6.68;;;;;;;16.96;86.27;99488.47;6076232;23;20330;-94
2023/07/27 08:30:50;;;;;;;17.20;6.80;;;;;;;17.00;86.93;99479.03;6052215;23;20327;-93
2023/07/27 08:33:17;;;;;;;16.45;7.05;;;;;;;17.00;87.41;99477.19;6124499;23;20021;-93
2023/07/27 08:35:44;;;;;;;16.60;6.65;;;;;;;17.02;87.58;99469.78;6100786;23;20025;-95
2023/07/27 08:38:11;;;;;;;13.15;5.95;;;;;;;17.05;87.56;99461.34;6075348;23;20025;-93
2023/07/27 08:40:38;;;;;;;9.10;5.78;;;;;;;17.05;87.55;99456.00;6075435;23;20091;-94
2023/07/27 08:43:07;;;;;;;19.67;6.45;;;;;;;17.06;87.67;99463.00;6076312;23;20039;-94
2023/07/27 08:45:36;;;;;;;12.63;6.43;;;;;;;17.04;87.82;99462.34;6075872;23;20017;-95
2023/07/27 08:48:04;;;;;;;19.67;6.80;;;;;;;17.06;87.66;99464.88;6051735;23;20026;-94
2023/07/27 08:50:32;;;;;;;14.30;6.88;;;;;;;17.06;88.20;99454.97;6124104;23;20047;-95
2023/07/27 08:52:58;;;;;;;15.05;7.07;;;;;;;17.06;88.48;99457.66;6052869;23;20087;-95
2023/07/27 08:55:25;;;;;;;16.05;7.20;;;;;;;17.07;88.73;99455.78;6051633;23;20026;-95
2023/07/27 08:57:52;;;;;;;13.88;6.47;;;;;;;17.07;89.04;99445.91;6050363;23;20025;-94
2023/07/27 09:00:19;;;;;;;17.00;7.00;;;;;;;17.09;89.80;99451.06;6099741;23;20029;-95
2023/07/27 09:02:46;;;;;;;15.95;6.57;;;;;;;17.07;89.50;99448.59;6123146;23;20021;-94
2023/07/27 09:05:14;;;;;;;12.73;6.65;;;;;;;17.11;89.39;99449.88;6099814;23;20021;-94
2023/07/27 09:07:41;;;;;;;14.30;6.10;;;;;;;17.10;89.42;99445.53;6052083;23;20032;-95
2023/07/27 09:10:11;;;;;;;14.00;6.43;;;;;;;17.13;89.53;99436.28;6075261;23;20026;-95
2023/07/27 09:12:38;;;;;;;11.13;6.22;;;;;;;17.14;89.58;99430.72;6075653;23;20022;-95
2023/07/27 09:15:13;;;;;;;15.60;6.55;;;;;;;17.15;89.34;99428.88;6076238;23;20029;-95
2023/07/27 09:17:40;;;;;;;15.60;6.65;;;;;;;17.17;89.83;99436.72;6099530;23;20021;-96
2023/07/27 09:20:12;;;;;;;13.55;6.43;;;;;;;17.16;90.11;99443.13;6075406;23;20032;-96
2023/07/27 09:22:39;;;;;;;15.13;6.10;;;;;;;17.16;90.10;99433.22;6052521;23;20377;-95
2023/07/27 09:25:07;;;;;;;12.05;7.05;;;;;;;17.14;90.35;99427.19;6052041;23;20030;-95
2023/07/27 09:27:42;;;;;;;18.55;8.15;;;;;;;17.13;90.81;99433.59;6124276;23;20392;-94
2023/07/27 09:30:10;;;;;;;17.05;6.97;;;;;;;17.12;90.72;99432.78;6051637;23;20438;-94
2023/07/27 09:32:38;;;;;;;14.30;6.70;;;;;;;17.12;90.88;99434.59;6099662;23;20022;-95
2023/07/27 09:35:06;;;;;;;11.30;6.35;;;;;;;17.10;90.81;99432.13;6100102;23;20036;-95
2023/07/27 09:37:33;;;;;;;14.88;6.75;;;;;;;17.07;91.00;99426.28;6075386;23;20327;-95
2023/07/27 09:40:08;;;;;;;13.35;6.57;;;;;;;17.05;91.76;99433.72;6075573;23;20092;-95
2023/07/27 09:42:35;;;;;;;16.00;6.47;;;;;;;17.06;91.72;99430.00;6075394;23;20025;-94
2023/07/27 09:45:02;;;;;;;13.88;6.85;;;;;;;17.08;92.07;99434.16;6051227;23;20026;-95
2023/07/27 09:47:31;;;;;;;20.05;6.85;;;;;;;17.04;92.36;99427.50;6075178;23;20026;-94
2023/07/27 09:49:59;;;;;;;11.95;6.65;;;;;;;17.05;92.48;99422.97;6075260;23;20089;-95
2023/07/27 09:52:28;;;;;;;9.90;5.85;;;;;;;17.03;92.42;99415.09;6098616;23;20093;-94
2023/07/27 09:54:56;;;;;;;11.10;6.30;;;;;;;17.03;92.45;99416.97;6074644;23;20037;-94
2023/07/27 09:57:24;;;;;;;16.70;5.85;;;;;;;17.07;92.57;99424.47;6074611;23;20080;-95
2023/07/27 09:59:51;;;;;;;12.32;6.30;;;;;;;17.07;92.72;99418.22;6074381;23;20025;-95
2023/07/27 10:02:20;;;;;;;14.85;9.15;;;;;;;17.09;93.15;99417.03;6076454;23;20021;-94
2023/07/27 10:04:57;;;;;;;19.60;10.75;;;;;;;17.07;93.18;99416.41;6098841;23;20092;-93
2023/07/27 10:07:26;;;;;;;17.38;9.45;;;;;;;17.11;93.45;99416.84;6074346;23;20029;-95
2023/07/27 10:10:23;;;;;;;12.65;7.13;;;;;;;17.08;94.63;99412.69;6053594;23;20038;-95
2023/07/27 10:12:50;;;;;;;11.20;7.43;;;;;;;17.13;94.36;99404.91;6073079;23;20026;-94
2023/07/27 10:15:27;;;;;;;15.45;7.55;;;;;;;17.19;94.41;99416.72;6099128;23;20021;-94
2023/07/27 10:17:57;;;;;;;12.45;6.68;;;;;;;17.20;94.21;99415.72;6074644;23;20097;-95
2023/07/27 10:20:27;;;;;;;13.38;6.35;;;;;;;17.17;94.13;99413.41;6074353;23;20438;-95
2023/07/27 10:23:11;;;;;;;14.35;6.57;;;;;;;17.13;94.58;99406.75;6098285;23;20100;-95
2023/07/27 10:25:53;;;;;;;9.25;5.90;;;;;;;17.17;94.98;99402.66;6051116;23;20036;-95
2023/07/27 10:28:37;;;;;;;15.82;7.03;;;;;;;17.20;94.69;99396.09;6074748;23;20021;-94
2023/07/27 10:31:24;;;;;;;12.40;6.28;;;;;;;17.19;95.14;99389.91;6050774;23;20450;-95
2023/07/27 10:33:55;;;;;;;11.27;6.75;;;;;;;17.28;94.72;99390.63;6051278;23;20458;-95
2023/07/27 10:36:58;;;;;;;14.80;7.00;;;;;;;17.25;95.75;99391.84;6054850;23;20022;-94
2023/07/27 10:39:29;;;;;;;12.98;6.47;;;;;;;17.30;95.37;99385.88;6074550;23;20390;-96
2023/07/27 10:41:58;;;;;;;10.32;5.90;;;;;;;17.31;95.19;99377.66;6074609;23;20034;-94
2023/07/27 10:44:29;;;;;;;11.93;6.78;;;;;;;17.35;95.03;99380.78;6099139;23;20017;-93
2023/07/27 10:46:57;;;;;;;11.75;5.72;;;;;;;17.34;94.77;99374.59;6073885;23;20458;-93
2023/07/27 10:49:24;;;;;;;12.00;5.57;;;;;;;17.35;94.96;99376.25;6097640;23;20041;-93
2023/07/27 10:51:55;;;;;;;8.13;5.15;;;;;;;17.36;94.95;99369.03;6097652;23;20062;-94
2023/07/27 10:54:24;;;;;;;12.57;6.03;;;;;;;17.39;94.83;99367.81;6050216;23;20021;-93
2023/07/27 10:56:51;;;;;;;13.40;5.57;;;;;;;17.38;94.50;99366.16;6050017;23;20102;-92
2023/07/27 10:59:20;;;;;;;16.17;6.13;;;;;;;17.38;94.63;99364.31;6073727;23;20037;-94
2023/07/27 11:01:47;;;;;;;9.23;4.85;;;;;;;17.39;94.93;99359.78;6073835;23;20018;-93
2023/07/27 11:04:14;;;;;;;8.02;4.97;;;;;;;17.38;94.81;99353.59;6073876;23;20022;-91
2023/07/27 11:06:43;;;;;;;7.20;4.80;;;;;;;17.43;94.23;99344.94;6122007;23;20096;-93
2023/07/27 11:09:11;;;;;;;7.55;5.13;;;;;;;17.46;94.18;99349.94;6074018;23;20350;-92
2023/07/27 11:11:39;;;;;;;10.13;5.15;;;;;;;17.49;94.96;99346.88;6096718;23;20029;-93
2023/07/27 11:14:06;;;;;;;13.43;6.95;;;;;;;17.54;94.71;99341.75;6072693;23;20040;-92
2023/07/27 11:16:37;;;;;;;9.55;5.45;;;;;;;17.53;94.68;99335.56;6072746;23;20024;-91
2023/07/27 11:19:08;;;;;;;10.15;5.20;;;;;;;17.51;95.01;99329.53;6073204;23;20029;-92
2023/07/27 11:21:40;;;;;;;9.50;5.18;;;;;;;17.51;95.06;99331.41;6072836;23;20032;-92
2023/07/27 11:24:08;;;;;;;9.68;4.40;;;;;;;17.52;95.24;99330.38;6072704;23;20480;-92
2023/07/27 11:26:35;;;;;;;19.15;4.95;;;;;;;17.50;95.27;99332.41;6072112;23;20029;-92
2023/07/27 11:29:02;;;;;;;6.75;4.85;;;;;;;17.48;95.53;99329.94;6096776;23;20033;-92
2023/07/27 11:31:29;;;;;;;9.48;5.03;;;;;;;17.48;96.08;99332.63;6072966;23;20044;-92
2023/07/27 11:33:58;;;;;;;13.05;5.55;;;;;;;17.52;96.40;99333.88;6121327;23;20025;-93